createdAt,value
2018-07-04T00:01:05.605Z,98603.16
2018-07-04T00:03:45.415Z,98597.88
2018-07-04T00:06:25.973Z,98602.27
2018-07-04T00:09:06.663Z,98597.83
2018-07-04T00:11:46.653Z,98601.38
2018-07-04T00:14:27.352Z,98600.57
2018-07-04T00:17:07.313Z,98598.36
2018-07-04T00:19:47.343Z,98613.78
2018-07-04T00:22:27.349Z,98605.25
2018-07-04T00:25:07.192Z,98604.66
2018-07-04T00:27:47.130Z,98602.99
2018-07-04T00:30:27.184Z,98605.20
2018-07-04T00:33:06.944Z,98604.11
2018-07-04T00:35:47.146Z,98598.30
2018-07-04T00:38:27.075Z,98602.44
2018-07-04T00:41:06.966Z,98601.60
2018-07-04T00:43:47.010Z,98601.05
2018-07-04T00:46:27.069Z,98601.30
2018-07-04T00:49:06.864Z,98594.12
2018-07-04T00:51:46.988Z,98599.91
2018-07-04T00:54:26.817Z,98601.24
2018-07-04T00:57:06.812Z,98595.72
2018-07-04T00:59:46.665Z,98598.73
2018-07-04T01:02:27.213Z,98601.67
2018-07-04T01:05:07.080Z,98604.14
2018-07-04T01:07:46.985Z,98603.83
2018-07-04T01:10:26.826Z,98606.30
2018-07-04T01:13:07.214Z,98594.73
2018-07-04T01:15:47.228Z,98598.86
2018-07-04T01:18:28.005Z,98599.11
2018-07-04T01:21:13.428Z,98599.09
2018-07-04T01:23:54.324Z,98599.86
2018-07-04T01:26:35.174Z,98600.39
2018-07-04T01:29:15.080Z,98598.72
2018-07-04T01:31:55.097Z,98600.64
2018-07-04T01:34:35.220Z,98603.93
2018-07-04T01:37:14.926Z,98601.72
2018-07-04T01:39:54.724Z,98600.08
2018-07-04T01:42:34.637Z,98598.41
2018-07-04T01:45:15.192Z,98596.44
2018-07-04T01:47:55.198Z,98594.51
2018-07-04T01:50:36.259Z,98598.09
2018-07-04T01:53:17.058Z,98598.89
2018-07-04T01:55:57.172Z,98599.16
2018-07-04T01:58:37.081Z,98593.36
2018-07-04T02:01:17.113Z,98598.87
2018-07-04T02:03:56.994Z,98594.45
2018-07-04T02:06:36.868Z,98600.25
2018-07-04T02:09:17.344Z,98591.94
2018-07-04T02:11:57.293Z,98591.13
2018-07-04T02:14:37.104Z,98593.30
2018-07-04T02:17:17.052Z,98599.33
2018-07-04T02:19:56.839Z,98591.30
2018-07-04T02:22:37.003Z,98592.59
2018-07-04T02:25:16.766Z,98592.21
2018-07-04T02:27:57.140Z,98595.98
2018-07-04T02:30:36.964Z,98596.69
2018-07-04T02:33:16.836Z,98597.73
2018-07-04T02:35:56.818Z,98596.26
2018-07-04T02:38:36.751Z,98599.98
2018-07-04T02:41:17.269Z,98600.45
2018-07-04T02:43:57.265Z,98600.65
2018-07-04T02:46:39.804Z,98605.23
2018-07-04T02:49:21.131Z,98597.41
2018-07-04T02:52:00.953Z,98597.61
2018-07-04T02:54:41.002Z,98600.30
2018-07-04T02:57:21.127Z,98603.31
2018-07-04T03:00:01.162Z,98606.55
2018-07-04T03:02:41.090Z,98607.36
2018-07-04T03:05:21.088Z,98607.59
2018-07-04T03:08:00.831Z,98611.98
2018-07-04T03:10:41.422Z,98610.31
2018-07-04T03:13:21.401Z,98614.44
2018-07-04T03:16:01.561Z,98612.44
2018-07-04T03:18:41.360Z,98609.94
2018-07-04T03:21:21.456Z,98607.95
2018-07-04T03:24:01.308Z,98603.30
2018-07-04T03:26:41.012Z,98607.21
2018-07-04T03:29:21.006Z,98613.48
2018-07-04T03:32:00.988Z,98610.52
2018-07-04T03:34:40.929Z,98610.62
2018-07-04T03:37:21.266Z,98611.78
2018-07-04T03:40:01.202Z,98610.41
2018-07-04T03:42:41.462Z,98596.14
2018-07-04T03:45:22.195Z,98596.36
2018-07-04T03:48:03.084Z,98600.19
2018-07-04T03:50:42.998Z,98601.11
2018-07-04T03:53:23.370Z,98594.10
2018-07-04T03:56:03.148Z,98592.00
2018-07-04T03:58:43.009Z,98592.88
2018-07-04T04:01:22.819Z,98594.85
2018-07-04T04:04:02.887Z,98588.59
2018-07-04T04:06:42.694Z,98602.15
2018-07-04T04:09:22.676Z,98599.16
2018-07-04T04:12:02.555Z,98604.73
2018-07-04T04:14:42.380Z,98611.11
2018-07-04T04:17:22.284Z,98612.91
2018-07-04T04:20:02.138Z,98610.89
2018-07-04T04:22:42.084Z,98617.07
2018-07-04T04:25:22.065Z,98617.77
2018-07-04T04:28:02.076Z,98622.05
2018-07-04T04:30:42.921Z,98632.33
2018-07-04T04:33:22.817Z,98631.86
2018-07-04T04:36:03.080Z,98628.86
2018-07-04T04:38:43.474Z,98637.14
2018-07-04T04:41:23.541Z,98638.02
2018-07-04T04:44:03.558Z,98642.18
2018-07-04T04:46:43.407Z,98635.97
2018-07-04T04:49:23.880Z,98644.91
2018-07-04T04:52:03.871Z,98657.69
2018-07-04T04:54:43.971Z,98656.12
2018-07-04T04:57:23.786Z,98656.50
2018-07-04T05:00:04.204Z,98653.85
2018-07-04T05:02:44.155Z,98652.89
2018-07-04T05:05:24.047Z,98653.53
2018-07-04T05:08:04.280Z,98658.09
2018-07-04T05:10:44.308Z,98656.50
2018-07-04T05:13:24.200Z,98657.17
2018-07-04T05:16:04.196Z,98651.45
2018-07-04T05:18:44.037Z,98644.03
2018-07-04T05:21:23.868Z,98638.31
2018-07-04T05:24:03.920Z,98634.22
2018-07-04T05:26:43.783Z,98642.23
2018-07-04T05:29:24.776Z,98642.52
2018-07-04T05:32:04.794Z,98643.33
2018-07-04T05:34:44.664Z,98632.83
2018-07-04T05:37:24.531Z,98632.56
2018-07-04T05:40:04.584Z,98636.44
2018-07-04T05:42:44.746Z,98626.72
2018-07-04T05:45:24.499Z,98629.75
2018-07-04T05:48:04.537Z,98628.91
2018-07-04T05:50:44.470Z,98639.94
2018-07-04T05:53:24.100Z,98635.75
2018-07-04T05:56:04.260Z,98631.06
2018-07-04T05:58:45.225Z,98630.25
2018-07-04T06:01:25.763Z,98638.56
2018-07-04T06:04:05.490Z,98640.19
2018-07-04T06:06:45.920Z,98637.23
2018-07-04T06:09:25.815Z,98635.05
2018-07-04T06:12:05.611Z,98639.46
2018-07-04T06:14:51.047Z,98634.43
2018-07-04T06:17:31.034Z,98631.63
2018-07-04T06:20:10.876Z,98630.80
2018-07-04T06:22:50.936Z,98634.97
2018-07-04T06:25:30.728Z,98633.05
2018-07-04T06:28:10.489Z,98635.88
2018-07-04T06:30:50.451Z,98638.65
2018-07-04T06:33:31.088Z,98636.17
2018-07-04T06:36:10.956Z,98631.41
2018-07-04T06:38:38.561Z,98628.86
2018-07-04T06:41:06.064Z,98625.79
2018-07-04T06:43:33.590Z,98619.94
2018-07-04T06:46:01.252Z,98619.88
2018-07-04T06:48:28.708Z,98616.42
2018-07-04T06:50:56.152Z,98617.47
2018-07-04T06:53:23.717Z,98612.80
2018-07-04T06:55:51.619Z,98611.23
2018-07-04T06:58:19.065Z,98604.03
2018-07-04T07:00:47.515Z,98598.52
2018-07-04T07:03:27.195Z,98595.94
2018-07-04T07:06:07.161Z,98595.18
2018-07-04T07:08:47.296Z,98593.16
2018-07-04T07:11:27.115Z,98592.98
2018-07-04T07:14:06.981Z,98602.66
2018-07-04T07:16:47.169Z,98606.41
2018-07-04T07:19:27.094Z,98608.22
2018-07-04T07:22:07.027Z,98609.41
2018-07-04T07:24:46.881Z,98608.43
2018-07-04T07:27:26.985Z,98609.97
2018-07-04T07:30:06.926Z,98605.20
2018-07-04T07:32:46.763Z,98600.67
2018-07-04T07:35:26.658Z,98602.83
2018-07-04T07:38:07.680Z,98599.78
2018-07-04T07:40:47.607Z,98600.66
2018-07-04T07:43:27.492Z,98597.33
2018-07-04T07:46:07.443Z,98597.41
2018-07-04T07:48:47.622Z,98594.30
2018-07-04T07:51:27.541Z,98599.84
2018-07-04T07:54:07.588Z,98610.33
2018-07-04T07:56:47.772Z,98615.11
2018-07-04T07:59:29.965Z,98615.05
2018-07-04T08:02:10.027Z,98619.00
2018-07-04T08:04:50.073Z,98618.59
2018-07-04T08:07:30.057Z,98609.36
2018-07-04T08:10:10.122Z,98605.75
2018-07-04T08:12:49.868Z,98608.80
2018-07-04T08:15:29.848Z,98612.21
2018-07-04T08:18:09.625Z,98607.14
2018-07-04T08:20:49.744Z,98606.87
2018-07-04T08:23:29.601Z,98607.86
2018-07-04T08:26:09.471Z,98601.73
2018-07-04T08:28:49.839Z,98600.27
2018-07-04T08:31:30.596Z,98602.73
2018-07-04T08:34:10.387Z,98604.23
2018-07-04T08:36:50.649Z,98607.50
2018-07-04T08:39:30.489Z,98608.06
2018-07-04T08:42:10.680Z,98604.66
2018-07-04T08:44:50.416Z,98609.52
2018-07-04T08:47:30.312Z,98595.91
2018-07-04T08:50:10.317Z,98592.14
2018-07-04T08:52:50.282Z,98578.73
2018-07-04T08:55:30.149Z,98573.91
2018-07-04T08:58:10.018Z,98576.61
2018-07-04T09:00:50.023Z,98576.10
2018-07-04T09:03:30.041Z,98566.48
2018-07-04T09:06:09.916Z,98563.46
2018-07-04T09:08:49.952Z,98560.08
2018-07-04T09:11:29.914Z,98550.73
2018-07-04T09:14:10.001Z,98550.73
2018-07-04T09:16:49.926Z,98550.83
2018-07-04T09:19:29.978Z,98554.89
2018-07-04T09:22:09.828Z,98552.78
2018-07-04T09:24:50.729Z,98551.25
2018-07-04T09:27:30.591Z,98550.78
2018-07-04T09:30:10.792Z,98549.80
2018-07-04T09:32:50.708Z,98537.19
2018-07-04T09:35:30.660Z,98531.78
2018-07-04T09:38:10.541Z,98521.87
2018-07-04T09:40:50.483Z,98519.75
2018-07-04T09:43:35.008Z,98521.34
2018-07-04T09:46:15.471Z,98518.61
2018-07-04T09:48:55.475Z,98517.56
2018-07-04T09:51:35.435Z,98512.45
2018-07-04T09:54:15.276Z,98510.53
2018-07-04T09:56:55.363Z,98504.66
2018-07-04T09:59:35.627Z,98507.73
2018-07-04T10:02:15.844Z,98506.19
2018-07-04T10:04:55.794Z,98505.88
2018-07-04T10:07:35.693Z,98506.98
2018-07-04T10:10:15.512Z,98514.64
2018-07-04T10:12:55.423Z,98510.13
2018-07-04T10:15:36.774Z,98499.05
2018-07-04T10:18:16.838Z,98494.52
2018-07-04T10:20:56.769Z,98489.73
2018-07-04T10:23:36.664Z,98496.20
2018-07-04T10:26:16.533Z,98502.05
2018-07-04T10:28:56.354Z,98484.28
2018-07-04T10:31:36.232Z,98482.50
2018-07-04T10:34:16.170Z,98480.91
2018-07-04T10:36:55.905Z,98483.34
2018-07-04T10:39:35.833Z,98482.75
2018-07-04T10:42:15.600Z,98481.30
2018-07-04T10:44:55.575Z,98476.30
2018-07-04T10:47:35.369Z,98475.64
2018-07-04T10:50:15.298Z,98470.59
2018-07-04T10:52:55.189Z,98463.30
2018-07-04T10:55:35.189Z,98465.27
2018-07-04T10:58:15.153Z,98461.39
2018-07-04T11:00:55.192Z,98465.56
2018-07-04T11:03:34.980Z,98461.39
2018-07-04T11:06:15.019Z,98450.66
2018-07-04T11:08:56.479Z,98449.91
2018-07-04T11:11:36.555Z,98447.02
2018-07-04T11:14:16.351Z,98437.63
2018-07-04T11:16:56.518Z,98435.84
2018-07-04T11:19:36.832Z,98431.02
2018-07-04T11:22:17.349Z,98423.78
2018-07-04T11:24:57.479Z,98431.52
2018-07-04T11:27:37.621Z,98434.98
2018-07-04T11:30:17.686Z,98436.55
2018-07-04T11:32:59.631Z,98444.58
2018-07-04T11:35:40.328Z,98439.95
2018-07-04T11:38:21.166Z,98433.51
2018-07-04T11:41:01.940Z,98427.60
2018-07-04T11:43:41.853Z,98425.45
2018-07-04T11:46:09.343Z,98411.72
2018-07-04T11:48:36.896Z,98416.66
2018-07-04T11:51:04.410Z,98414.23
2018-07-04T11:53:31.954Z,98403.45
2018-07-04T11:55:59.431Z,98399.25
2018-07-04T11:58:27.025Z,98394.64
2018-07-04T12:00:54.504Z,98395.98
2018-07-04T12:03:23.790Z,98399.54
2018-07-04T12:06:03.868Z,98402.75
2018-07-04T12:08:32.085Z,98407.52
2018-07-04T12:10:59.643Z,98413.37
2018-07-04T12:13:28.071Z,98408.50
2018-07-04T12:15:55.520Z,98399.34
2018-07-04T12:18:23.709Z,98399.75
2018-07-04T12:20:52.487Z,98390.20
2018-07-04T12:23:19.963Z,98391.77
2018-07-04T12:25:47.452Z,98401.41
2018-07-04T12:28:15.160Z,98396.65
2018-07-04T12:30:42.623Z,98396.86
2018-07-04T12:33:11.437Z,98394.98
2018-07-04T12:35:39.980Z,98387.88
2018-07-04T12:38:07.415Z,98381.38
2018-07-04T12:40:34.899Z,98352.05
2018-07-04T12:43:02.474Z,98338.45
